createdAt,value
2022-09-01T00:03:00.243Z,17.35
2022-09-01T00:08:02.241Z,18.03
2022-09-01T00:13:06.955Z,18.87
2022-09-01T00:18:08.794Z,16.05
2022-09-01T00:23:10.983Z,19.27
2022-09-01T00:28:13.061Z,21.37
2022-09-01T00:33:14.847Z,16.40
2022-09-01T00:38:16.596Z,17.80
2022-09-01T00:43:36.539Z,19.03
2022-09-01T00:48:39.162Z,18.58
2022-09-01T00:53:43.807Z,18.30
2022-09-01T00:58:45.565Z,18.98
2022-09-01T01:03:47.290Z,17.42
2022-09-01T01:08:57.078Z,17.20
2022-09-01T01:14:05.823Z,19.80
2022-09-01T01:19:38.352Z,17.80
2022-09-01T01:24:42.485Z,16.88
2022-09-01T01:29:44.569Z,16.45
2022-09-01T01:34:48.747Z,18.37
2022-09-01T01:39:51.794Z,15.48
2022-09-01T01:44:54.614Z,18.95
2022-09-01T01:49:57.413Z,13.77
2022-09-01T01:55:03.270Z,14.27
2022-09-01T02:00:07.849Z,14.25
2022-09-01T02:05:13.871Z,15.10
2022-09-01T02:10:16.296Z,14.75
2022-09-01T02:15:20.310Z,13.20
2022-09-01T02:20:24.868Z,14.20
2022-09-01T02:25:27.485Z,14.02
2022-09-01T02:35:37.979Z,13.55
2022-09-01T02:40:44.906Z,12.88
2022-09-01T02:45:55.616Z,14.27
2022-09-01T02:51:01.989Z,14.88
2022-09-01T02:56:09.459Z,21.70
2022-09-01T03:01:25.161Z,15.57
2022-09-01T03:06:29.041Z,17.65
2022-09-01T03:11:33.315Z,15.82
2022-09-01T03:16:36.282Z,19.92
2022-09-01T03:21:41.079Z,20.02
2022-09-01T03:26:45.019Z,16.67
2022-09-01T03:31:51.717Z,16.35
2022-09-01T03:36:54.361Z,16.00
2022-09-01T03:42:03.285Z,15.10
2022-09-01T03:47:05.158Z,22.13
2022-09-01T03:52:08.956Z,14.80
2022-09-01T03:57:11.819Z,15.88
2022-09-01T04:02:15.838Z,15.52
2022-09-01T04:07:19.135Z,17.58
2022-09-01T04:12:21.446Z,16.13
2022-09-01T04:17:45.439Z,17.25
2022-09-01T04:22:49.599Z,16.65
2022-09-01T04:27:55.299Z,15.88
2022-09-01T04:32:58.508Z,16.45
2022-09-01T04:38:00.559Z,15.30
2022-09-01T04:43:02.285Z,15.37
2022-09-01T04:48:05.402Z,17.10
2022-09-01T04:53:11.910Z,17.65
2022-09-01T04:58:18.716Z,15.50
2022-09-01T05:03:23.974Z,15.65
2022-09-01T05:08:35.516Z,17.98
2022-09-01T05:13:41.399Z,22.23
2022-09-01T05:18:47.468Z,20.25
2022-09-01T05:23:51.619Z,21.45
2022-09-01T05:28:56.271Z,7.20
2022-09-01T05:33:58.477Z,11.65
2022-09-01T05:39:02.066Z,19.83
2022-09-01T05:44:08.023Z,18.00
2022-09-01T05:49:13.918Z,19.30
2022-09-01T05:54:23.119Z,17.58
2022-09-01T05:59:27.643Z,20.73
2022-09-01T06:04:47.114Z,25.48
2022-09-01T06:09:55.757Z,22.33
2022-09-01T06:14:58.720Z,23.02
2022-09-01T06:20:00.866Z,22.63
2022-09-01T06:25:06.621Z,19.13
2022-09-01T06:30:23.908Z,22.35
2022-09-01T06:35:44.947Z,21.90
2022-09-01T06:40:47.380Z,23.30
2022-09-01T06:45:54.472Z,23.85
2022-09-01T06:51:20.876Z,23.23
2022-09-01T06:56:32.215Z,23.75
2022-09-01T07:13:25.441Z,22.42
2022-09-01T07:30:42.830Z,22.50
2022-09-01T07:36:24.976Z,23.10
2022-09-01T07:46:36.773Z,18.85
2022-09-01T07:51:40.164Z,16.98
2022-09-01T07:56:43.172Z,18.50
2022-09-01T08:01:47.294Z,16.70
2022-09-01T08:06:49.700Z,13.55
2022-09-01T08:12:01.693Z,13.30
2022-09-01T08:22:26.837Z,12.97
2022-09-01T08:27:38.898Z,10.80
2022-09-01T08:32:42.188Z,10.63
2022-09-01T08:37:45.298Z,9.10
2022-09-01T08:43:01.550Z,10.93
2022-09-01T08:49:09.900Z,10.52
2022-09-01T08:53:49.866Z,9.20
2022-09-01T08:58:54.187Z,9.98
2022-09-01T09:04:59.768Z,9.68
2022-09-01T09:10:17.082Z,8.88
2022-09-01T09:15:48.125Z,7.95
2022-09-01T09:20:51.529Z,8.07
2022-09-01T09:25:55.052Z,8.70
2022-09-01T09:31:35.745Z,8.80
2022-09-01T09:36:38.355Z,9.38
2022-09-01T09:41:41.415Z,8.70
2022-09-01T09:46:47.466Z,8.98
2022-09-01T09:51:58.771Z,8.38
2022-09-01T09:57:11.643Z,7.80
2022-09-01T10:02:23.165Z,8.10
2022-09-01T10:07:34.371Z,7.18
2022-09-01T10:12:37.170Z,6.75
2022-09-01T10:17:43.640Z,5.87
2022-09-01T10:22:48.595Z,5.50
2022-09-01T10:27:59.178Z,4.60
2022-09-01T10:33:08.011Z,4.55
2022-09-01T10:38:21.519Z,4.60
2022-09-01T10:43:41.506Z,4.38
2022-09-01T10:48:48.796Z,4.13
2022-09-01T10:54:02.287Z,4.10
2022-09-01T10:59:32.762Z,3.88
2022-09-01T11:04:37.775Z,4.40
2022-09-01T11:09:45.057Z,4.03
2022-09-01T11:15:26.755Z,4.07
2022-09-01T11:20:36.102Z,3.97
2022-09-01T11:25:45.862Z,3.78
2022-09-01T11:30:58.183Z,3.55
2022-09-01T11:36:28.669Z,4.07
2022-09-01T11:41:39.533Z,4.00
2022-09-01T11:46:45.822Z,3.60
2022-09-01T11:51:48.279Z,3.67
2022-09-01T11:56:50.079Z,3.42
2022-09-01T12:01:57.929Z,3.33
2022-09-01T12:07:10.621Z,3.30
2022-09-01T12:12:34.677Z,3.45
2022-09-01T12:17:36.789Z,3.20
2022-09-01T12:22:42.854Z,3.10
2022-09-01T12:27:44.557Z,2.63
2022-09-01T12:32:47.011Z,3.00
2022-09-01T12:37:48.979Z,2.78
2022-09-01T12:42:52.317Z,2.75
2022-09-01T12:47:54.419Z,2.95
2022-09-01T12:53:02.009Z,3.28
2022-09-01T12:58:07.492Z,2.63
2022-09-01T13:03:15.106Z,2.55
2022-09-01T13:08:19.462Z,2.60
2022-09-01T13:13:24.219Z,2.30
2022-09-01T13:18:26.706Z,2.80
2022-09-01T13:23:28.524Z,2.70
2022-09-01T13:28:31.965Z,2.90
2022-09-01T13:34:09.238Z,2.83
2022-09-01T13:38:57.421Z,2.58
2022-09-01T13:43:59.439Z,2.60
2022-09-01T13:49:03.013Z,2.77
2022-09-01T13:54:05.123Z,2.80
2022-09-01T13:59:07.999Z,2.65
2022-09-01T14:04:10.373Z,1.90
2022-09-01T14:09:17.571Z,2.15
2022-09-01T14:14:19.894Z,2.47
2022-09-01T14:19:22.143Z,2.35
2022-09-01T14:24:23.865Z,2.38
2022-09-01T14:29:25.775Z,2.30
2022-09-01T14:34:27.654Z,2.47
2022-09-01T14:39:30.741Z,2.40
2022-09-01T14:44:34.484Z,2.20
2022-09-01T14:49:37.006Z,1.80
2022-09-01T14:59:42.216Z,2.30
2022-09-01T15:09:45.638Z,1.98
2022-09-01T15:14:47.320Z,2.10
2022-09-01T15:19:49.322Z,1.90
2022-09-01T15:24:50.946Z,2.37
2022-09-01T15:29:52.639Z,2.28
2022-09-01T15:34:56.210Z,2.00
2022-09-01T15:39:58.123Z,2.45
2022-09-01T15:44:59.822Z,2.17
2022-09-01T15:50:05.802Z,2.20
2022-09-01T15:55:08.965Z,2.33
2022-09-01T16:00:11.542Z,2.30
2022-09-01T16:05:14.414Z,2.20
2022-09-01T16:10:16.123Z,2.20
2022-09-01T16:15:22.163Z,2.30
2022-09-01T16:20:30.396Z,2.28
2022-09-01T16:25:34.776Z,2.10
2022-09-01T16:30:36.827Z,1.90
2022-09-01T16:35:47.902Z,2.07
2022-09-01T16:41:28.033Z,2.25
2022-09-01T16:46:47.803Z,2.10
2022-09-01T16:52:00.113Z,2.15
2022-09-01T16:57:27.706Z,2.20
2022-09-01T17:02:38.174Z,2.28
2022-09-01T17:07:49.397Z,1.92
2022-09-01T17:12:56.237Z,2.22
2022-09-01T17:18:06.136Z,2.03
2022-09-01T17:23:15.530Z,2.00
2022-09-01T17:28:33.442Z,2.10
2022-09-01T17:33:50.365Z,2.10
2022-09-01T17:39:15.954Z,2.38
2022-09-01T17:44:35.488Z,2.50
2022-09-01T17:49:54.082Z,2.30
2022-09-01T17:55:10.758Z,2.30
2022-09-01T18:00:26.274Z,2.70
2022-09-01T18:05:34.021Z,2.83
2022-09-01T18:10:40.706Z,2.90
2022-09-01T18:15:53.101Z,3.00
2022-09-01T18:21:04.829Z,2.70
2022-09-01T18:26:32.443Z,2.80
2022-09-01T18:31:34.884Z,2.70
2022-09-01T18:37:21.266Z,2.73
2022-09-01T18:42:52.557Z,2.50
2022-09-01T18:48:17.146Z,2.70
2022-09-01T18:53:34.100Z,3.20
2022-09-01T18:59:04.085Z,2.80
2022-09-01T19:04:16.556Z,3.17
2022-09-01T19:09:30.681Z,2.78
2022-09-01T19:15:03.932Z,2.85
2022-09-01T19:20:12.473Z,3.60
2022-09-01T19:25:36.070Z,3.70
2022-09-01T19:30:48.092Z,3.53
2022-09-01T19:35:54.519Z,3.40
2022-09-01T19:41:12.865Z,4.10
2022-09-01T19:46:37.844Z,3.85
2022-09-01T19:51:56.957Z,3.80
2022-09-01T19:57:08.215Z,4.00
2022-09-01T20:02:21.103Z,3.90
2022-09-01T20:12:53.719Z,3.55
2022-09-01T20:18:02.359Z,3.42
2022-09-01T20:23:14.571Z,3.30
2022-09-01T20:28:45.339Z,3.77
2022-09-01T20:33:54.923Z,3.42
2022-09-01T20:39:33.391Z,3.45
2022-09-01T20:44:48.121Z,3.90
2022-09-01T20:49:49.914Z,3.80
2022-09-01T20:55:04.616Z,4.32
2022-09-01T21:00:16.975Z,3.97
2022-09-01T21:05:26.702Z,3.75
2022-09-01T21:10:41.466Z,3.80
2022-09-01T21:15:52.686Z,4.03
2022-09-01T21:21:04.103Z,3.72
2022-09-01T21:26:06.172Z,3.67
2022-09-01T21:31:08.789Z,4.05
2022-09-01T21:36:10.524Z,4.22
2022-09-01T21:41:13.452Z,4.45
2022-09-01T21:46:16.406Z,4.22
2022-09-01T21:51:18.343Z,3.97
2022-09-01T21:56:20.031Z,4.25
2022-09-01T22:01:31.241Z,3.72
2022-09-01T22:06:34.047Z,3.78
2022-09-01T22:11:36.795Z,4.00
2022-09-01T22:16:39.120Z,4.03
2022-09-01T22:21:41.949Z,4.03
2022-09-01T22:26:43.809Z,3.63
2022-09-01T22:31:45.715Z,4.03
2022-09-01T22:36:49.104Z,3.70
2022-09-01T22:41:51.021Z,3.55
2022-09-01T22:46:52.781Z,3.30
2022-09-01T22:51:54.694Z,3.72
2022-09-01T22:56:58.667Z,3.30
2022-09-01T23:02:01.848Z,3.33
2022-09-01T23:07:05.271Z,3.47
2022-09-01T23:12:07.165Z,3.63
2022-09-01T23:17:09.096Z,3.60
2022-09-01T23:22:10.835Z,3.45
2022-09-01T23:27:12.579Z,3.65
2022-09-01T23:32:14.368Z,4.00
2022-09-01T23:37:16.857Z,3.20
2022-09-01T23:42:19.462Z,3.28
2022-09-01T23:47:21.090Z,3.85
2022-09-01T23:52:22.775Z,3.92
2022-09-01T23:57:24.653Z,4.25
